Дата Пункты Температура Давл., мм. Влажн., % Ветер Погодные явления
Воздуха Воды Направл. Скорость
07.06.16 09:00 Одесса 17.0 19.0 760 64 Пн 1 09 часов
07.06.16 06:00 Одесса 13.0 20.0 759 70 Пн-С 3 06 часов
07.06.16 03:00 Одесса 14.0 20.0 758 71 Пн-З 3 03 часа
06.06.16 09:00 Одесса 20.0 20.0 756 66 Пн 4 21 час
06.06.16 06:00 Одесса 23.0 21.0 754 63 Пд-З 2 18 часов
06.06.16 03:00 Одесса 19.0 21.0 754 82 Пд-З 3 15 часов
06.06.16 12:00 Одесса 24.0 20.0 754 69 З 2 12 часов
06.06.16 09:00 Одесса 21.0 20.0 754 81 З 2 09 часов
06.06.16 06:00 Одесса 18.0 20.0 754 92 Пд-З 2 06 часов
06.06.16 03:00 Одесса 18.0 20.0 754 86 Пд-З 2 03 часа
05.06.16 09:00 Одесса 21.0 21.0 755 73 Пд-З 2 21 час
05.06.16 03:00 Одесса 23.0 21.0 756 74 Пд-С 2 15 часов
05.06.16 12:00 Одесса 25.0 20.0 756 45 Пн-З 2 12 часов
05.06.16 09:00 Одесса 23.0 20.0 756 68 Пн 1 09 часов
05.06.16 06:00 Одесса 15.0 20.0 755 96 З 2 06 часов
05.06.16 03:00 Одесса 16.0 20.0 755 96 З 1 03 часа
04.06.16 09:00 Одесса 19.0 20.0 754 80 Пн-З 1 21 час
04.06.16 06:00 Одесса 23.0 21.0 753 60 Пн 0 18 часов
04.06.16 03:00 Одесса 23.0 21.0 754 61 Пн-С 1 15 часов
04.06.16 12:00 Одесса 21.0 19.0 754 69 Пн-С 2 12 часов
Количество строк
351 352 353 354 355 356 357 358 359 360
Page 351 of 523